»·PEaware :: N235B KSBA-KBUR

N235B :: KSBA-KBUR

FLIGHT INFORMATION

Flight Status: Arrived
Operator: Privately registered:
United States
More flights under this callsign
Pilot: Jason D. (29273)
Aircraft: BEECH AIRCRAFT BARON
(BE58)
More flights by this aircraft type
Origin: KSBA Santa Barbara Mun
United States
Destination: KBUR Bob Hope-Burbank
United States
More flights between these airports :: More routes between these airports
Route: +FIM
File this flight plan on PilotEdge
Remarks:
Altitude:
(Current/Filed)
5,500ft
Speed:
(Current/Filed)
200kts
Departed: 14-Aug-20 09:26 AM
Arrived: 14-Aug-20 10:03 AM
Distance/Time
Traveled:
75nm/0:37
Distance/Time
To Go:
Arrived

Flight Plot

Page will automatically refresh every two minutes.


Map Options




Map Legend


Flown Route
Filed Route
Departure Airport
Arrival Airport
Navaid (VOR, NDB)
Fix

Horizontal Profiles

Position Reports

Time Latitude Longitude Heading Altitude Ground
Speed
14-Aug-20 09:00 34.422653 -119.835589 340 11ft 0kts
14-Aug-20 09:01 34.422653 -119.835589 340 11ft 0kts
14-Aug-20 09:02 34.422653 -119.835589 340 11ft 0kts
14-Aug-20 09:03 34.422653 -119.835589 340 11ft 0kts
14-Aug-20 09:04 34.422653 -119.835589 340 11ft 0kts
14-Aug-20 09:05 34.422653 -119.835589 340 11ft 0kts
14-Aug-20 09:06 34.422653 -119.835589 340 11ft 0kts
14-Aug-20 09:07 34.422653 -119.835589 340 11ft 0kts
14-Aug-20 09:08 34.422653 -119.835589 341 11ft 0kts
14-Aug-20 09:09 34.422653 -119.835589 340 11ft 0kts
14-Aug-20 09:10 34.422653 -119.835589 340 11ft 0kts
14-Aug-20 09:11 34.422653 -119.835589 340 11ft 0kts
14-Aug-20 09:12 34.422653 -119.835589 340 11ft 0kts
14-Aug-20 09:13 34.422653 -119.835589 340 11ft 0kts
14-Aug-20 09:14 34.422653 -119.835589 340 11ft 0kts
14-Aug-20 09:15 34.422653 -119.835589 340 11ft 0kts
14-Aug-20 09:16 34.422653 -119.835589 340 11ft 0kts
14-Aug-20 09:17 34.422653 -119.835589 340 11ft 0kts
14-Aug-20 09:18 34.422653 -119.835589 340 11ft 0kts
14-Aug-20 09:19 34.422653 -119.835589 340 11ft 0kts
14-Aug-20 09:20 34.422653 -119.835589 340 11ft 0kts
14-Aug-20 09:21 34.427641 -119.838657 346 13ft 29kts
14-Aug-20 09:22 34.430626 -119.839752 282 14ft 0kts
14-Aug-20 09:23 34.430626 -119.839752 282 14ft 0kts
14-Aug-20 09:24 34.430008 -119.840126 159 14ft 15kts
14-Aug-20 09:25 34.418808 -119.837589 171 382ft 84kts
14-Aug-20 09:26 34.396416 -119.830710 151 1596ft 82kts
14-Aug-20 09:27 34.373313 -119.825100 168 2391ft 100kts
14-Aug-20 09:28 34.338424 -119.817100 165 1572ft 146kts
14-Aug-20 09:29 34.298926 -119.818843 162 1544ft 142kts
14-Aug-20 09:30 34.260115 -119.806599 161 1514ft 141kts
14-Aug-20 09:31 34.232162 -119.783862 75 1846ft 107kts
14-Aug-20 09:32 34.241874 -119.757332 68 2706ft 80kts
14-Aug-20 09:33 34.251859 -119.732956 68 3257ft 81kts
14-Aug-20 09:34 34.262429 -119.708452 68 3777ft 82kts
14-Aug-20 09:35 34.273464 -119.683826 68 4263ft 84kts
14-Aug-20 09:36 34.287180 -119.660294 60 4722ft 86kts
14-Aug-20 09:37 34.302080 -119.637134 60 5229ft 95kts
14-Aug-20 09:38 34.323540 -119.600455 60 5580ft 164kts
14-Aug-20 09:39 34.350499 -119.550997 67 5489ft 178kts
14-Aug-20 09:40 34.369972 -119.496073 78 5464ft 176kts
14-Aug-20 09:41 34.381402 -119.438609 80 5481ft 176kts
14-Aug-20 09:42 34.386191 -119.379687 90 5488ft 176kts
14-Aug-20 09:43 34.386820 -119.320397 94 5478ft 178kts
14-Aug-20 09:44 34.384893 -119.259985 96 5479ft 181kts
14-Aug-20 09:45 34.381492 -119.198620 100 5465ft 183kts
14-Aug-20 09:46 34.375643 -119.136555 100 5457ft 187kts
14-Aug-20 09:47 34.369347 -119.073491 100 5454ft 190kts
14-Aug-20 09:48 34.364496 -119.009122 96 5456ft 193kts
14-Aug-20 09:49 34.360796 -118.944101 96 5454ft 193kts
14-Aug-20 09:50 34.356282 -118.879293 106 5431ft 193kts
14-Aug-20 09:51 34.342912 -118.816874 107 5449ft 191kts
14-Aug-20 09:52 34.329239 -118.754640 107 5457ft 191kts
14-Aug-20 09:53 34.315015 -118.692540 107 5466ft 192kts
14-Aug-20 09:54 34.300163 -118.630369 107 5473ft 192kts
14-Aug-20 09:55 34.284653 -118.569277 107 5544ft 183kts
14-Aug-20 09:56 34.268522 -118.511457 107 5483ft 178kts
14-Aug-20 09:57 34.252693 -118.454950 109 4953ft 203kts
14-Aug-20 09:58 34.205872 -118.425552 188 2229ft 216kts
14-Aug-20 09:59 34.184207 -118.452970 0 2424ft 128kts
14-Aug-20 10:00 34.194472 -118.418988 78 1648ft 119kts
14-Aug-20 10:01 34.197926 -118.381577 88 1012ft 111kts
14-Aug-20 10:02 34.196986 -118.360191 150 714ft 0kts
14-Aug-20 10:03 34.196779 -118.359601 103 712ft 23kts
14-Aug-20 10:04 34.195790 -118.358088 184 707ft 0kts
14-Aug-20 10:05 34.195790 -118.358088 184 707ft 0kts
14-Aug-20 10:07 34.195790 -118.358088 184 707ft 0kts
14-Aug-20 10:08 34.195790 -118.358088 184 707ft 0kts
14-Aug-20 10:09 34.195790 -118.358088 184 707ft 0kts
14-Aug-20 10:10 34.195790 -118.358088 184 707ft 0kts
14-Aug-20 10:11 34.195790 -118.358088 184 707ft 0kts
14-Aug-20 10:12 34.195790 -118.358088 184 707ft 0kts
14-Aug-20 10:13 34.195790 -118.358088 184 707ft 0kts
14-Aug-20 10:14 34.195790 -118.358088 184 707ft 0kts
14-Aug-20 10:15 34.195790 -118.358088 184 707ft 0kts
14-Aug-20 10:16 34.195790 -118.358088 184 707ft 0kts
14-Aug-20 10:17 34.195790 -118.358088 184 707ft 0kts

Navigation Log

Ident Type
Flight plan parsing failed, navigation log unavailable